createdAt,value
2023-04-30T00:00:45.290Z,11.88
2023-04-30T00:03:15.876Z,11.77
2023-04-30T00:05:46.486Z,12.30
2023-04-30T00:08:19.948Z,12.70
2023-04-30T00:10:50.402Z,12.02
2023-04-30T00:13:23.644Z,11.88
2023-04-30T00:15:54.346Z,12.15
2023-04-30T00:18:24.927Z,11.38
2023-04-30T00:20:55.333Z,11.18
2023-04-30T00:23:28.492Z,12.18
2023-04-30T00:25:59.109Z,12.18
2023-04-30T00:28:29.710Z,10.90
2023-04-30T00:31:00.296Z,11.95
2023-04-30T00:33:30.735Z,11.57
2023-04-30T00:36:01.262Z,12.52
2023-04-30T00:38:34.536Z,10.93
2023-04-30T00:41:05.138Z,11.18
2023-04-30T00:43:35.696Z,11.55
2023-04-30T00:46:06.918Z,11.30
2023-04-30T00:48:40.460Z,11.27
2023-04-30T00:51:11.606Z,11.45
2023-04-30T00:53:45.068Z,11.13
2023-04-30T00:56:18.606Z,10.50
2023-04-30T00:58:50.127Z,11.05
2023-04-30T01:01:21.725Z,10.70
2023-04-30T01:03:52.724Z,11.00
2023-04-30T01:06:25.749Z,12.27
2023-04-30T01:08:59.825Z,11.48
2023-04-30T01:11:43.689Z,10.25
2023-04-30T01:14:20.965Z,10.70
2023-04-30T01:17:05.083Z,10.00
2023-04-30T01:19:45.149Z,11.57
2023-04-30T01:22:28.850Z,10.65
2023-04-30T01:25:48.360Z,8.80
2023-04-30T01:28:22.667Z,9.88
2023-04-30T01:30:54.646Z,9.70
2023-04-30T01:33:25.525Z,9.57
2023-04-30T01:36:43.141Z,10.20
2023-04-30T01:39:31.846Z,9.48
2023-04-30T01:42:12.736Z,8.32
2023-04-30T01:45:19.034Z,8.65
2023-04-30T01:47:56.670Z,8.38
2023-04-30T01:50:39.916Z,7.72
2023-04-30T01:53:13.864Z,8.50
2023-04-30T01:55:51.053Z,8.27
2023-04-30T01:58:23.022Z,8.38
2023-04-30T02:00:56.266Z,9.27
2023-04-30T02:03:30.133Z,9.80
2023-04-30T02:06:01.669Z,8.93
2023-04-30T02:11:03.757Z,9.17
2023-04-30T02:13:34.182Z,8.32
2023-04-30T02:16:09.165Z,7.90
2023-04-30T02:18:39.807Z,8.20
2023-04-30T02:21:10.311Z,8.20
2023-04-30T02:23:40.901Z,8.13
2023-04-30T02:28:42.617Z,7.70
2023-04-30T02:31:16.989Z,7.80
2023-04-30T02:33:49.462Z,7.53
2023-04-30T02:36:20.026Z,7.00
2023-04-30T02:38:50.842Z,7.38
2023-04-30T02:41:21.922Z,7.00
2023-04-30T02:43:53.072Z,6.93
2023-04-30T02:46:26.317Z,6.32
2023-04-30T02:48:57.434Z,6.53
2023-04-30T02:51:28.440Z,7.13
2023-04-30T02:56:29.377Z,6.25
2023-04-30T02:58:59.966Z,6.32
2023-04-30T03:01:33.185Z,5.70
2023-04-30T03:04:03.981Z,7.00
2023-04-30T03:06:35.489Z,5.63
2023-04-30T03:09:06.306Z,6.03
2023-04-30T03:11:37.908Z,6.30
2023-04-30T03:14:08.585Z,5.75
2023-04-30T03:16:41.771Z,6.20
2023-04-30T03:19:12.660Z,5.82
2023-04-30T03:21:43.337Z,5.38
2023-04-30T03:24:13.811Z,5.68
2023-04-30T03:26:44.497Z,5.65
2023-04-30T03:29:15.167Z,5.45
2023-04-30T03:31:49.226Z,5.35
2023-04-30T03:34:19.725Z,5.53
2023-04-30T03:36:50.164Z,5.28
2023-04-30T03:39:20.702Z,5.15
2023-04-30T03:41:51.264Z,4.95
2023-04-30T03:44:21.781Z,5.00
2023-04-30T03:46:54.937Z,4.85
2023-04-30T03:49:25.486Z,5.60
2023-04-30T03:51:56.485Z,5.25
2023-04-30T03:54:27.087Z,5.00
2023-04-30T03:56:57.792Z,5.10
2023-04-30T03:59:28.613Z,4.78
2023-04-30T04:02:02.003Z,5.07
2023-04-30T04:04:33.501Z,5.65
2023-04-30T04:07:04.413Z,5.75
2023-04-30T04:09:34.872Z,4.47
2023-04-30T04:12:08.432Z,5.57
2023-04-30T04:14:40.127Z,4.78
2023-04-30T04:17:13.553Z,5.55
2023-04-30T04:19:44.152Z,5.10
2023-04-30T04:22:15.195Z,4.90
2023-04-30T04:24:45.975Z,4.80
2023-04-30T04:27:20.621Z,4.93
2023-04-30T04:29:51.408Z,4.60
2023-04-30T04:32:25.512Z,4.32
2023-04-30T04:34:57.243Z,4.32
2023-04-30T04:37:27.841Z,5.55
2023-04-30T04:39:58.523Z,3.95
2023-04-30T04:42:29.188Z,4.28
2023-04-30T04:44:59.724Z,4.43
2023-04-30T04:47:33.616Z,3.90
2023-04-30T04:50:04.261Z,4.32
2023-04-30T04:52:34.769Z,4.25
2023-04-30T04:55:05.437Z,4.22
2023-04-30T04:57:36.409Z,4.25
2023-04-30T05:00:09.713Z,3.95
2023-04-30T05:02:43.025Z,4.10
2023-04-30T05:05:13.979Z,4.25
2023-04-30T05:07:44.998Z,4.10
2023-04-30T05:10:15.630Z,4.00
2023-04-30T05:12:46.335Z,4.40
2023-04-30T05:15:16.884Z,4.35
2023-04-30T05:17:49.998Z,3.90
2023-04-30T05:20:20.768Z,4.85
2023-04-30T05:22:51.225Z,4.10
2023-04-30T05:25:22.038Z,3.35
2023-04-30T05:27:52.762Z,4.22
2023-04-30T05:30:23.586Z,4.60
2023-04-30T05:32:57.082Z,4.38
2023-04-30T05:35:27.790Z,4.32
2023-04-30T05:37:58.250Z,4.00
2023-04-30T05:40:28.747Z,4.07
2023-04-30T05:42:59.473Z,4.00
2023-04-30T05:45:30.004Z,3.95
2023-04-30T05:48:03.125Z,3.72
2023-04-30T05:50:33.654Z,26.30
2023-04-30T05:53:04.323Z,39.25
2023-04-30T05:55:37.805Z,7.75
2023-04-30T05:58:08.223Z,4.40
2023-04-30T06:00:39.581Z,4.38
2023-04-30T06:03:12.668Z,4.32
2023-04-30T06:05:44.489Z,4.35
2023-04-30T06:08:15.085Z,4.60
2023-04-30T06:10:45.917Z,4.00
2023-04-30T06:13:18.780Z,13.93
2023-04-30T06:15:49.266Z,23.95
2023-04-30T06:18:22.469Z,10.70
2023-04-30T06:20:53.424Z,4.97
2023-04-30T06:23:23.948Z,4.40
2023-04-30T06:25:54.451Z,4.13
2023-04-30T06:28:25.087Z,4.07
2023-04-30T06:30:56.166Z,3.80
2023-04-30T06:35:59.390Z,4.40
2023-04-30T06:38:29.880Z,4.45
2023-04-30T06:41:00.439Z,4.07
2023-04-30T06:43:33.847Z,4.47
2023-04-30T06:46:05.240Z,4.82
2023-04-30T06:48:38.297Z,4.60
2023-04-30T06:51:10.473Z,4.72
2023-04-30T06:53:41.753Z,4.80
2023-04-30T06:56:12.302Z,5.20
2023-04-30T06:58:42.941Z,4.97
2023-04-30T07:01:13.833Z,4.75
2023-04-30T07:03:47.251Z,4.80
2023-04-30T07:06:17.950Z,5.78
2023-04-30T07:08:48.765Z,4.65
2023-04-30T07:11:19.339Z,4.80
2023-04-30T07:13:49.904Z,4.78
2023-04-30T07:16:20.810Z,5.30
2023-04-30T07:18:53.953Z,5.70
2023-04-30T07:21:25.770Z,5.70
2023-04-30T07:23:56.402Z,5.53
2023-04-30T07:26:27.367Z,5.00
2023-04-30T07:31:28.787Z,5.28
2023-04-30T07:34:02.018Z,35.70
2023-04-30T07:36:32.776Z,17.85
2023-04-30T07:39:03.876Z,6.22
2023-04-30T07:44:04.593Z,4.68
2023-04-30T07:46:35.322Z,5.57
2023-04-30T07:49:08.640Z,5.85
2023-04-30T07:51:39.693Z,5.47
2023-04-30T07:56:40.469Z,4.95
2023-04-30T07:59:11.330Z,4.35
2023-04-30T08:01:41.914Z,5.28
2023-04-30T08:04:15.100Z,4.30
2023-04-30T08:06:45.602Z,4.88
2023-04-30T08:09:16.163Z,4.72
2023-04-30T08:11:46.640Z,4.90
2023-04-30T08:14:17.188Z,5.28
2023-04-30T08:16:47.867Z,4.53
2023-04-30T08:19:21.130Z,5.40
2023-04-30T08:21:51.617Z,5.25
2023-04-30T08:24:22.082Z,5.03
2023-04-30T08:26:53.603Z,5.43
2023-04-30T08:29:25.340Z,4.50
2023-04-30T08:31:55.947Z,6.20
2023-04-30T08:34:29.054Z,5.68
2023-04-30T08:37:00.009Z,6.80
2023-04-30T08:39:30.772Z,5.32
2023-04-30T08:42:06.802Z,5.75
2023-04-30T08:44:39.894Z,5.78
2023-04-30T08:47:14.478Z,6.65
2023-04-30T08:49:49.083Z,6.00
2023-04-30T08:52:20.291Z,5.22
2023-04-30T08:54:51.611Z,4.68
2023-04-30T08:57:22.534Z,4.38
2023-04-30T08:59:53.440Z,4.43
2023-04-30T09:02:24.310Z,4.22
2023-04-30T09:04:57.629Z,3.92
2023-04-30T09:07:30.412Z,4.38
2023-04-30T09:10:00.977Z,4.10
2023-04-30T09:15:03.792Z,4.50
2023-04-30T09:17:35.344Z,3.85
2023-04-30T09:20:18.361Z,3.55
2023-04-30T09:22:48.975Z,3.83
2023-04-30T09:27:51.311Z,4.25
2023-04-30T09:33:05.989Z,3.85
2023-04-30T09:35:41.906Z,3.65
2023-04-30T09:38:29.970Z,3.60
2023-04-30T09:41:04.924Z,3.63
2023-04-30T09:43:35.688Z,3.70
2023-04-30T09:46:07.557Z,3.30
2023-04-30T09:48:38.053Z,3.35
2023-04-30T09:53:46.813Z,3.78
2023-04-30T09:56:21.773Z,3.50
2023-04-30T09:58:56.378Z,3.08
2023-04-30T10:01:30.108Z,3.60
2023-04-30T10:04:01.308Z,3.47
2023-04-30T10:06:36.028Z,3.13
2023-04-30T10:09:08.339Z,2.90
2023-04-30T10:11:42.514Z,3.03
2023-04-30T10:14:16.530Z,3.30
2023-04-30T10:16:55.186Z,3.47
2023-04-30T10:19:30.938Z,3.13
2023-04-30T10:22:06.468Z,3.00
2023-04-30T10:24:38.163Z,3.22
2023-04-30T10:27:08.960Z,3.65
2023-04-30T10:29:39.614Z,2.83
2023-04-30T10:32:16.933Z,3.08
2023-04-30T10:34:58.089Z,3.00
2023-04-30T10:37:39.775Z,3.25
2023-04-30T10:40:12.146Z,3.17
2023-04-30T10:42:50.875Z,2.90
2023-04-30T10:45:21.895Z,2.97
2023-04-30T10:47:52.660Z,2.45
2023-04-30T10:50:27.207Z,2.97
2023-04-30T10:53:09.199Z,2.90
2023-04-30T10:55:51.299Z,2.65
2023-04-30T10:58:34.716Z,3.13
2023-04-30T11:01:08.793Z,2.60
2023-04-30T11:03:40.222Z,2.78
2023-04-30T11:06:20.206Z,2.60
2023-04-30T11:11:24.305Z,2.78
2023-04-30T11:14:03.851Z,3.00
2023-04-30T11:16:35.279Z,3.20
2023-04-30T11:19:16.238Z,2.70
2023-04-30T11:22:24.298Z,3.30
2023-04-30T11:25:10.158Z,2.80
2023-04-30T11:27:42.301Z,2.95
2023-04-30T11:30:18.341Z,2.60
2023-04-30T11:32:52.277Z,2.55
2023-04-30T11:35:23.198Z,2.78
2023-04-30T11:38:01.513Z,2.92
2023-04-30T11:40:39.736Z,2.72
2023-04-30T11:43:10.344Z,3.25
2023-04-30T11:45:42.697Z,2.83
2023-04-30T11:48:17.321Z,3.28
2023-04-30T11:50:48.259Z,2.50
2023-04-30T11:53:19.324Z,3.17
2023-04-30T11:55:52.844Z,3.25
2023-04-30T11:58:23.328Z,2.47
2023-04-30T12:00:55.530Z,2.80
2023-04-30T12:03:26.163Z,3.10
2023-04-30T12:05:56.751Z,2.67
2023-04-30T12:08:27.541Z,2.85
2023-04-30T12:11:00.746Z,2.80
2023-04-30T12:13:31.343Z,2.67
2023-04-30T12:16:03.641Z,3.17
2023-04-30T12:18:36.687Z,2.42
2023-04-30T12:21:07.975Z,2.63
2023-04-30T12:23:38.588Z,2.78
2023-04-30T12:26:11.752Z,2.88
2023-04-30T12:28:42.402Z,2.60
2023-04-30T12:31:13.000Z,2.50
2023-04-30T12:33:43.745Z,2.78
2023-04-30T12:36:14.324Z,2.63
2023-04-30T12:38:47.412Z,2.47
2023-04-30T12:41:21.411Z,2.60
2023-04-30T12:43:52.673Z,2.25
2023-04-30T12:46:30.703Z,2.85
2023-04-30T12:49:01.376Z,2.22
2023-04-30T12:51:31.970Z,2.50
2023-04-30T12:54:02.523Z,2.25
2023-04-30T12:56:35.658Z,2.45
2023-04-30T12:59:06.162Z,3.53
2023-04-30T13:01:37.645Z,4.03
2023-04-30T13:04:08.582Z,3.72
2023-04-30T13:06:39.732Z,2.60
2023-04-30T13:09:10.917Z,2.15
2023-04-30T13:11:44.157Z,2.17
2023-04-30T13:14:14.662Z,2.30
2023-04-30T13:16:45.121Z,2.15
2023-04-30T13:19:24.575Z,2.28
2023-04-30T13:24:25.814Z,2.40
2023-04-30T13:26:59.506Z,2.40
2023-04-30T13:29:30.057Z,2.00
2023-04-30T13:32:00.551Z,2.00
2023-04-30T13:34:31.013Z,2.47
2023-04-30T13:37:01.587Z,2.10
2023-04-30T13:39:32.088Z,2.38
2023-04-30T13:42:05.617Z,2.55
2023-04-30T13:44:36.937Z,2.40
2023-04-30T13:47:07.849Z,2.10
2023-04-30T13:49:39.260Z,2.00
2023-04-30T13:52:09.959Z,3.10
2023-04-30T13:54:41.720Z,2.33
2023-04-30T13:57:14.849Z,2.40
2023-04-30T13:59:45.619Z,2.28
2023-04-30T14:02:16.205Z,2.33
2023-04-30T14:04:54.942Z,2.10
2023-04-30T14:07:35.642Z,2.23
2023-04-30T14:10:06.532Z,2.28
2023-04-30T14:12:39.721Z,2.50
2023-04-30T14:15:12.597Z,2.55
2023-04-30T14:17:43.556Z,2.30
2023-04-30T14:20:16.715Z,2.53
2023-04-30T14:22:47.376Z,2.30
2023-04-30T14:25:17.933Z,2.45
2023-04-30T14:27:51.088Z,2.08
2023-04-30T14:30:21.614Z,2.13
2023-04-30T14:32:52.060Z,2.22
2023-04-30T14:35:22.585Z,2.20
2023-04-30T14:37:53.122Z,2.47
2023-04-30T14:40:23.774Z,2.22
2023-04-30T14:42:56.821Z,2.05
2023-04-30T14:45:30.874Z,2.30
2023-04-30T14:48:04.627Z,2.05
2023-04-30T14:50:35.982Z,2.00
2023-04-30T14:53:06.803Z,2.55
2023-04-30T14:55:37.425Z,2.10
2023-04-30T14:58:10.545Z,2.03
2023-04-30T15:00:41.095Z,2.00
2023-04-30T15:03:11.729Z,2.13
2023-04-30T15:05:43.516Z,1.92
2023-04-30T15:08:14.016Z,1.88
2023-04-30T15:10:44.990Z,1.95
2023-04-30T15:13:18.517Z,1.90
2023-04-30T15:15:49.973Z,2.10
2023-04-30T15:18:20.539Z,2.00
2023-04-30T15:20:51.155Z,2.92
2023-04-30T15:23:21.983Z,1.85
2023-04-30T15:25:52.925Z,2.13
2023-04-30T15:28:26.551Z,2.05
2023-04-30T15:30:57.239Z,1.90
2023-04-30T15:33:29.103Z,2.05
2023-04-30T15:35:59.654Z,2.17
2023-04-30T15:38:31.665Z,1.83
2023-04-30T15:41:02.146Z,2.40
2023-04-30T15:43:35.379Z,1.73
2023-04-30T15:46:05.942Z,1.85
2023-04-30T15:48:36.457Z,1.70
2023-04-30T15:51:07.181Z,1.65
2023-04-30T15:53:37.747Z,1.90
2023-04-30T15:56:09.138Z,2.03
2023-04-30T15:58:42.772Z,1.95
2023-04-30T16:01:13.321Z,2.10
2023-04-30T16:06:14.436Z,1.80
2023-04-30T16:08:46.252Z,1.98
2023-04-30T16:11:16.851Z,2.00
2023-04-30T16:13:50.149Z,2.20
2023-04-30T16:16:21.034Z,2.13
2023-04-30T16:18:51.818Z,1.70
2023-04-30T16:23:53.030Z,5.87
2023-04-30T16:26:23.600Z,20.98
2023-04-30T16:28:56.865Z,4.63
2023-04-30T16:31:27.824Z,2.70
2023-04-30T16:33:58.461Z,2.38
2023-04-30T16:36:29.091Z,2.30
2023-04-30T16:38:59.785Z,2.10
2023-04-30T16:44:03.147Z,2.53
2023-04-30T16:46:33.792Z,2.45
2023-04-30T16:49:04.288Z,2.30
2023-04-30T16:51:34.843Z,2.20
2023-04-30T16:54:05.475Z,2.33
2023-04-30T16:56:36.229Z,1.88
2023-04-30T16:59:09.612Z,2.92
2023-04-30T17:01:40.170Z,2.35
2023-04-30T17:04:11.527Z,2.10
2023-04-30T17:06:42.924Z,2.20
2023-04-30T17:09:13.524Z,2.33
2023-04-30T17:11:43.958Z,1.83
2023-04-30T17:14:19.641Z,2.10
2023-04-30T17:16:50.104Z,2.00
2023-04-30T17:19:20.913Z,2.28
2023-04-30T17:24:22.577Z,2.15
2023-04-30T17:26:53.486Z,2.78
2023-04-30T17:31:56.757Z,9.52
2023-04-30T17:34:27.691Z,11.45
2023-04-30T17:39:29.062Z,2.20
2023-04-30T17:41:59.501Z,1.88
2023-04-30T17:44:34.290Z,2.05
2023-04-30T17:47:05.844Z,1.92
2023-04-30T17:49:36.424Z,2.40
2023-04-30T17:52:07.257Z,2.00
2023-04-30T17:54:37.715Z,2.13
2023-04-30T17:57:08.199Z,2.33
2023-04-30T17:59:42.265Z,1.85
2023-04-30T18:02:12.934Z,1.90
2023-04-30T18:04:43.660Z,1.77
2023-04-30T18:07:14.130Z,2.03
2023-04-30T18:09:44.916Z,2.65
2023-04-30T18:12:15.530Z,2.90
2023-04-30T18:14:48.661Z,3.15
2023-04-30T18:17:19.284Z,3.13
2023-04-30T18:19:50.041Z,2.67
2023-04-30T18:22:22.747Z,2.88
2023-04-30T18:24:53.546Z,2.58
2023-04-30T18:27:24.225Z,2.65
2023-04-30T18:29:59.506Z,2.40
2023-04-30T18:32:30.332Z,2.33
2023-04-30T18:35:02.260Z,2.28
2023-04-30T18:37:33.249Z,2.38
2023-04-30T18:45:09.667Z,5.23
2023-04-30T18:47:40.240Z,6.10
2023-04-30T18:50:15.617Z,7.13
2023-04-30T18:52:46.551Z,5.97
2023-04-30T18:57:47.491Z,5.82
2023-04-30T19:00:21.356Z,6.50
2023-04-30T19:02:51.951Z,8.20
2023-04-30T19:05:22.565Z,9.52
2023-04-30T19:07:53.032Z,9.35
2023-04-30T19:10:23.628Z,9.75
2023-04-30T19:12:54.151Z,9.95
2023-04-30T19:15:29.933Z,11.77
2023-04-30T19:18:01.606Z,12.98
2023-04-30T19:20:32.164Z,11.55
2023-04-30T19:23:02.653Z,10.10
2023-04-30T19:25:33.915Z,12.43
2023-04-30T19:28:04.440Z,14.02
2023-04-30T19:30:37.704Z,15.88
2023-04-30T19:33:08.269Z,16.15
2023-04-30T19:35:38.757Z,12.85
2023-04-30T19:38:09.230Z,9.85
2023-04-30T19:40:39.992Z,9.25
2023-04-30T19:43:11.483Z,11.13
2023-04-30T19:45:53.423Z,13.45
2023-04-30T19:48:27.192Z,12.88
2023-04-30T19:50:58.349Z,9.82
2023-04-30T19:53:29.472Z,7.82
2023-04-30T19:58:33.102Z,7.97
2023-04-30T20:01:06.339Z,8.23
2023-04-30T20:03:37.015Z,7.70
2023-04-30T20:06:07.816Z,7.97
2023-04-30T20:08:38.630Z,7.30
2023-04-30T20:11:09.242Z,7.55
2023-04-30T20:13:39.721Z,6.57
2023-04-30T20:16:12.866Z,7.20
2023-04-30T20:18:43.537Z,6.22
2023-04-30T20:21:14.162Z,6.03
2023-04-30T20:23:44.713Z,5.55
2023-04-30T20:26:15.323Z,5.97
2023-04-30T20:28:48.706Z,6.00
2023-04-30T20:31:21.959Z,5.75
2023-04-30T20:33:52.621Z,5.90
2023-04-30T20:36:23.126Z,6.57
2023-04-30T20:38:54.538Z,5.30
2023-04-30T20:41:25.049Z,5.72
2023-04-30T20:43:55.544Z,5.55
2023-04-30T20:46:28.894Z,5.68
2023-04-30T20:49:04.161Z,5.85
2023-04-30T20:51:34.953Z,6.38
2023-04-30T20:54:05.710Z,5.40
2023-04-30T20:56:36.353Z,6.43
2023-04-30T20:59:07.315Z,6.10
2023-04-30T21:01:40.752Z,5.07
2023-04-30T21:04:11.507Z,5.65
2023-04-30T21:06:42.253Z,5.43
2023-04-30T21:09:12.756Z,5.65
2023-04-30T21:11:43.931Z,6.40
2023-04-30T21:16:49.234Z,6.70
2023-04-30T21:19:19.902Z,6.55
2023-04-30T21:21:50.479Z,8.23
2023-04-30T21:24:21.184Z,10.10
2023-04-30T21:26:51.669Z,11.38
2023-04-30T21:29:22.690Z,13.43
2023-04-30T21:34:28.913Z,11.75
2023-04-30T21:37:00.062Z,9.23
2023-04-30T21:39:30.863Z,9.93
2023-04-30T21:42:01.518Z,8.30
2023-04-30T21:44:36.314Z,8.63
2023-04-30T21:47:10.724Z,8.90
2023-04-30T21:49:42.865Z,9.43
2023-04-30T21:52:13.479Z,9.98
2023-04-30T21:54:44.121Z,8.82
2023-04-30T21:57:14.684Z,8.27
2023-04-30T21:59:45.933Z,9.07
2023-04-30T22:02:24.380Z,9.10
2023-04-30T22:04:55.597Z,9.95
2023-04-30T22:07:28.726Z,9.48
2023-04-30T22:09:59.236Z,9.82
2023-04-30T22:12:29.736Z,11.10
2023-04-30T22:15:01.140Z,12.75
2023-04-30T22:17:34.542Z,10.60
2023-04-30T22:20:05.006Z,11.48
2023-04-30T22:22:36.578Z,11.38
2023-04-30T22:25:10.709Z,11.10
2023-04-30T22:27:41.165Z,11.40
2023-04-30T22:30:12.625Z,10.98
2023-04-30T22:32:45.911Z,11.57
2023-04-30T22:35:19.392Z,12.43
2023-04-30T22:37:49.731Z,10.52
2023-04-30T22:40:20.744Z,11.48
2023-04-30T22:45:21.977Z,11.63
2023-04-30T22:47:56.898Z,10.38
2023-04-30T22:50:27.720Z,10.65
2023-04-30T22:52:58.737Z,11.45
2023-04-30T22:58:01.867Z,10.85
2023-04-30T23:00:32.600Z,10.40
2023-04-30T23:03:05.895Z,10.63
2023-04-30T23:05:39.423Z,11.13
2023-04-30T23:08:10.035Z,11.35
2023-04-30T23:10:40.763Z,10.70
2023-04-30T23:13:11.261Z,11.25
2023-04-30T23:15:43.440Z,11.25
2023-04-30T23:18:17.727Z,12.85
2023-04-30T23:20:48.111Z,12.65
2023-04-30T23:23:18.721Z,13.65
2023-04-30T23:25:53.145Z,15.05
2023-04-30T23:28:24.584Z,13.38
2023-04-30T23:30:58.216Z,13.05
2023-04-30T23:33:32.126Z,12.88
2023-04-30T23:36:03.269Z,12.38
2023-04-30T23:38:34.020Z,13.77
2023-04-30T23:41:05.327Z,13.13
2023-04-30T23:43:35.888Z,12.98
2023-04-30T23:46:06.471Z,11.93
2023-04-30T23:48:39.847Z,11.57
2023-04-30T23:51:10.797Z,11.45
2023-04-30T23:53:41.312Z,11.52
2023-04-30T23:56:11.831Z,10.85
2023-04-30T23:58:42.363Z,13.80
